Aurora, NE

8:27 AM CST on February 19, 2017 (GMT -0600)
Aurora Municipal | | Change Station

Elev 1804 ft 40.89 °N, 97.99 °W | Updated 12 minutes ago

Clear
Clear
47 °F
Feels Like 47 °F
N
10
Wind Variable Wind from SSE

Today
High -- | Low -- °F
--% Chance of Precip.
Yesterday
High -- | Low -- °F
Precip. -- in
Pressure 29.82 in
Visibility 7.0 miles
Clouds Clear
Dew Point 45 °F
Humidity 94%
Rainfall 0.00 in
Snow Depth Not available.
7:20 AM 6:11 PM
Last Quarter, 43% visible
METAR KAUH 191415Z AUTO 16009KT 7SM CLR 08/07 A2982 RMK AO2 T00810072
Pressure 29.82 in
Visibility 7.0 miles
Clouds Clear
Dew Point 45 °F
Humidity 94%
Rainfall 0.00 in
Snow Depth Not available.
7:20 AM 6:11 PM
Last Quarter, 43% visible
METAR KAUH 191415Z AUTO 16009KT 7SM CLR 08/07 A2982 RMK AO2 T00810072

Get Your Daily Forecast Email!

Thanks for signing up!

Be on the lookout for a verification email in your inbox.

You'll start receiving the daily forecast at 8 AM.

×

10-Day Weather Forecast

Almanac

Astronomy

Feb. 19, 2017 Rise Set
Actual Time
Civil Twilight
Nautical Twilight
Astronomical Twilight
Moon
Length of Visible Light
Length of Day
Tomorrow will be .
, % of the Moon is Illuminated

Today's Extremes

State Highs State Lows

Community

WunderPhotos

Upload Photos

1,962,540 photos uploaded!

WunderBlog® & News

Nearby

Air Quality

  Air Quality AQ Index Pollutant
Not available.

Snow Depth

Station Depth Elevation

Earthquake Activity

City Distance Mag. Time & Date
Minimum magnitude displayed is 2.5.

Coastal Water Temperatures

Place Temperature

Stations

Nearby Weather Stations

Station Location Temp. Windchill Dew Point Humidity Wind Precip. Elev Updated Type
                   

Watches & Warnings

There are currently no watches in effect.